sensor_id;sensor_type;location;lat;lon;timestamp;pressure;altitude;pressure_sealevel;temperature;humidity
75886;BME280;64561;44.018;10.144;2023-05-10T00:00:33;101146.22;;;16.81;84.46
75886;BME280;64561;44.018;10.144;2023-05-10T00:03:00;101140.22;;;16.87;84.88
75886;BME280;64561;44.018;10.144;2023-05-10T00:05:27;101139.38;;;16.96;85.03
75886;BME280;64561;44.018;10.144;2023-05-10T00:07:54;101132.50;;;16.98;84.82
75886;BME280;64561;44.018;10.144;2023-05-10T00:10:20;101129.06;;;17.00;84.59
75886;BME280;64561;44.018;10.144;2023-05-10T00:12:47;101128.16;;;17.00;84.63
75886;BME280;64561;44.018;10.144;2023-05-10T00:15:14;101115.22;;;16.90;85.07
75886;BME280;64561;44.018;10.144;2023-05-10T00:17:41;101127.31;;;16.91;84.84
75886;BME280;64561;44.018;10.144;2023-05-10T00:20:08;101116.97;;;16.96;85.36
75886;BME280;64561;44.018;10.144;2023-05-10T00:22:35;101116.13;;;17.02;85.29
75886;BME280;64561;44.018;10.144;2023-05-10T00:25:02;101107.50;;;17.01;85.37
75886;BME280;64561;44.018;10.144;2023-05-10T00:27:29;101103.19;;;17.02;85.62
75886;BME280;64561;44.018;10.144;2023-05-10T00:29:56;101093.72;;;17.04;85.26
75886;BME280;64561;44.018;10.144;2023-05-10T00:32:22;101085.09;;;16.96;84.81
75886;BME280;64561;44.018;10.144;2023-05-10T00:34:49;101083.38;;;16.88;86.00
75886;BME280;64561;44.018;10.144;2023-05-10T00:37:16;101075.59;;;16.87;86.16
75886;BME280;64561;44.018;10.144;2023-05-10T00:39:43;101071.28;;;16.87;86.43
75886;BME280;64561;44.018;10.144;2023-05-10T00:42:10;101070.44;;;16.91;87.18
75886;BME280;64561;44.018;10.144;2023-05-10T00:44:37;101067.88;;;16.98;86.50
75886;BME280;64561;44.018;10.144;2023-05-10T00:47:05;101059.22;;;16.92;86.10
75886;BME280;64561;44.018;10.144;2023-05-10T00:49:32;101050.63;;;16.95;86.71
75886;BME280;64561;44.018;10.144;2023-05-10T00:51:59;101046.31;;;16.94;86.95
75886;BME280;64561;44.018;10.144;2023-05-10T00:54:26;101048.03;;;17.01;87.01
75886;BME280;64561;44.018;10.144;2023-05-10T00:56:53;101040.28;;;16.95;87.08
75886;BME280;64561;44.018;10.144;2023-05-10T00:59:20;101024.75;;;17.00;86.83
75886;BME280;64561;44.018;10.144;2023-05-10T01:01:47;101022.19;;;17.04;86.75
75886;BME280;64561;44.018;10.144;2023-05-10T01:04:14;101012.72;;;17.05;86.74
75886;BME280;64561;44.018;10.144;2023-05-10T01:06:42;101011.00;;;17.01;85.70
75886;BME280;64561;44.018;10.144;2023-05-10T01:09:10;101011.00;;;16.95;86.48
75886;BME280;64561;44.018;10.144;2023-05-10T01:11:38;101004.97;;;16.94;86.25
75886;BME280;64561;44.018;10.144;2023-05-10T01:14:06;100998.91;;;16.94;86.38
75886;BME280;64561;44.018;10.144;2023-05-10T01:16:38;100986.00;;;16.89;86.46
75886;BME280;64561;44.018;10.144;2023-05-10T01:19:14;100978.19;;;16.75;86.28
75886;BME280;64561;44.018;10.144;2023-05-10T01:21:49;100978.16;;;16.57;86.76
75886;BME280;64561;44.018;10.144;2023-05-10T01:30:25;100975.59;;;16.61;86.98
75886;BME280;64561;44.018;10.144;2023-05-10T01:41:19;100957.50;;;16.63;88.12
75886;BME280;64561;44.018;10.144;2023-05-10T01:43:57;100956.66;;;16.62;87.51
75886;BME280;64561;44.018;10.144;2023-05-10T01:46:33;100954.94;;;16.71;87.90
75886;BME280;64561;44.018;10.144;2023-05-10T01:49:03;100958.38;;;16.74;87.46
75886;BME280;64561;44.018;10.144;2023-05-10T01:51:47;100962.72;;;16.77;87.41
75886;BME280;64561;44.018;10.144;2023-05-10T01:54:17;100949.81;;;16.77;86.84
75886;BME280;64561;44.018;10.144;2023-05-10T01:56:47;100954.97;;;16.78;87.26
75886;BME280;64561;44.018;10.144;2023-05-10T01:59:17;100950.66;;;16.77;86.95
75886;BME280;64561;44.018;10.144;2023-05-10T02:01:45;100949.78;;;16.78;86.99
75886;BME280;64561;44.018;10.144;2023-05-10T02:04:15;100954.97;;;16.81;86.91
75886;BME280;64561;44.018;10.144;2023-05-10T02:06:45;100954.13;;;16.82;87.11
75886;BME280;64561;44.018;10.144;2023-05-10T02:09:12;100952.38;;;16.84;87.11
75886;BME280;64561;44.018;10.144;2023-05-10T02:11:42;100940.31;;;16.86;87.10
75886;BME280;64561;44.018;10.144;2023-05-10T02:14:11;100939.47;;;16.89;87.32
75886;BME280;64561;44.018;10.144;2023-05-10T02:16:39;100950.66;;;16.92;86.85
75886;BME280;64561;44.018;10.144;2023-05-10T02:19:07;100967.88;;;16.94;86.67
75886;BME280;64561;44.018;10.144;2023-05-10T02:21:35;100972.19;;;16.99;86.37
75886;BME280;64561;44.018;10.144;2023-05-10T02:24:05;100995.47;;;16.95;86.47
75886;BME280;64561;44.018;10.144;2023-05-10T02:26:34;101009.22;;;16.81;87.29
75886;BME280;64561;44.018;10.144;2023-05-10T02:29:17;100992.84;;;16.73;87.48
75886;BME280;64561;44.018;10.144;2023-05-10T02:31:45;100989.38;;;16.71;86.97
75886;BME280;64561;44.018;10.144;2023-05-10T02:34:13;100986.81;;;16.68;86.92
75886;BME280;64561;44.018;10.144;2023-05-10T02:36:41;100989.38;;;16.68;87.09
75886;BME280;64561;44.018;10.144;2023-05-10T02:39:08;100998.84;;;16.72;87.04
75886;BME280;64561;44.018;10.144;2023-05-10T02:41:40;100998.00;;;16.70;87.26
75886;BME280;64561;44.018;10.144;2023-05-10T02:44:09;100994.53;;;16.69;87.37
75886;BME280;64561;44.018;10.144;2023-05-10T02:46:36;100995.41;;;16.68;87.25
75886;BME280;64561;44.018;10.144;2023-05-10T02:49:04;100995.41;;;16.64;87.20
75886;BME280;64561;44.018;10.144;2023-05-10T02:51:32;100989.38;;;16.63;86.68
75886;BME280;64561;44.018;10.144;2023-05-10T02:54:09;100985.94;;;16.64;86.30
75886;BME280;64561;44.018;10.144;2023-05-10T02:56:42;100992.84;;;16.61;86.19
75886;BME280;64561;44.018;10.144;2023-05-10T02:59:09;100984.19;;;16.56;86.54
75886;BME280;64561;44.018;10.144;2023-05-10T03:01:36;100981.63;;;16.56;87.24
75886;BME280;64561;44.018;10.144;2023-05-10T03:04:03;100985.06;;;16.58;86.98
75886;BME280;64561;44.018;10.144;2023-05-10T03:06:30;100969.56;;;16.58;87.08
75886;BME280;64561;44.018;10.144;2023-05-10T03:08:58;100973.88;;;16.59;86.63
75886;BME280;64561;44.018;10.144;2023-05-10T03:11:55;100973.00;;;16.60;86.42
75886;BME280;64561;44.018;10.144;2023-05-10T03:17:11;100958.34;;;16.63;86.33
75886;BME280;64561;44.018;10.144;2023-05-10T03:22:23;100951.47;;;16.68;86.31
75886;BME280;64561;44.018;10.144;2023-05-10T03:24:53;100945.47;;;16.71;86.34
75886;BME280;64561;44.018;10.144;2023-05-10T03:27:25;100936.00;;;16.70;86.56
75886;BME280;64561;44.018;10.144;2023-05-10T03:29:54;100942.00;;;16.69;87.17
75886;BME280;64561;44.018;10.144;2023-05-10T03:32:22;100926.50;;;16.69;86.97
75886;BME280;64561;44.018;10.144;2023-05-10T03:34:49;100926.50;;;16.69;87.13
75886;BME280;64561;44.018;10.144;2023-05-10T03:37:16;100926.50;;;16.72;87.48
75886;BME280;64561;44.018;10.144;2023-05-10T03:39:44;100920.47;;;16.68;87.61
75886;BME280;64561;44.018;10.144;2023-05-10T03:42:11;100917.00;;;16.69;88.15
75886;BME280;64561;44.018;10.144;2023-05-10T03:44:39;100908.41;;;16.66;87.93
75886;BME280;64561;44.018;10.144;2023-05-10T03:47:06;100902.41;;;16.61;88.15
75886;BME280;64561;44.018;10.144;2023-05-10T03:49:33;100898.94;;;16.62;88.23
75886;BME280;64561;44.018;10.144;2023-05-10T03:52:00;100900.66;;;16.61;88.33
75886;BME280;64561;44.018;10.144;2023-05-10T03:54:27;100899.81;;;16.61;88.48
75886;BME280;64561;44.018;10.144;2023-05-10T03:56:54;100896.34;;;16.60;89.20
75886;BME280;64561;44.018;10.144;2023-05-10T03:59:21;100901.50;;;16.60;88.34
75886;BME280;64561;44.018;10.144;2023-05-10T04:01:50;100901.53;;;16.59;88.93
75886;BME280;64561;44.018;10.144;2023-05-10T04:04:17;100892.94;;;16.58;89.04
75886;BME280;64561;44.018;10.144;2023-05-10T04:06:47;100892.91;;;16.60;88.84
75886;BME280;64561;44.018;10.144;2023-05-10T04:09:14;100884.31;;;16.58;88.94
75886;BME280;64561;44.018;10.144;2023-05-10T04:11:41;100892.91;;;16.60;88.89
75886;BME280;64561;44.018;10.144;2023-05-10T04:14:08;100892.06;;;16.61;89.13
75886;BME280;64561;44.018;10.144;2023-05-10T04:16:35;100882.59;;;16.61;88.87
75886;BME280;64561;44.018;10.144;2023-05-10T04:19:02;100882.56;;;16.63;88.67
75886;BME280;64561;44.018;10.144;2023-05-10T04:21:29;100886.91;;;16.64;88.61
75886;BME280;64561;44.018;10.144;2023-05-10T04:23:56;100886.91;;;16.67;88.45
75886;BME280;64561;44.018;10.144;2023-05-10T04:26:23;100877.41;;;16.60;88.72
75886;BME280;64561;44.018;10.144;2023-05-10T04:28:51;100880.00;;;16.57;88.89
75886;BME280;64561;44.018;10.144;2023-05-10T04:31:18;100875.69;;;16.56;89.31
75886;BME280;64561;44.018;10.144;2023-05-10T04:33:46;100872.25;;;16.55;89.66
75886;BME280;64561;44.018;10.144;2023-05-10T04:36:13;100869.66;;;16.57;89.64
75886;BME280;64561;44.018;10.144;2023-05-10T04:38:40;100865.34;;;16.56;89.59
75886;BME280;64561;44.018;10.144;2023-05-10T04:41:08;100854.16;;;16.58;89.50
75886;BME280;64561;44.018;10.144;2023-05-10T04:43:36;100855.91;;;16.61;89.76
75886;BME280;64561;44.018;10.144;2023-05-10T04:46:04;100852.44;;;16.62;89.65
75886;BME280;64561;44.018;10.144;2023-05-10T04:48:31;100857.59;;;16.60;89.64
75886;BME280;64561;44.018;10.144;2023-05-10T04:50:58;100848.97;;;16.63;89.74
75886;BME280;64561;44.018;10.144;2023-05-10T04:53:24;100853.31;;;16.64;89.43
75886;BME280;64561;44.018;10.144;2023-05-10T04:55:51;100858.47;;;16.65;89.62
75886;BME280;64561;44.018;10.144;2023-05-10T04:58:18;100857.59;;;16.66;89.62
75886;BME280;64561;44.018;10.144;2023-05-10T05:00:45;100855.03;;;16.62;90.04
75886;BME280;64561;44.018;10.144;2023-05-10T05:03:12;100855.91;;;16.58;90.23
75886;BME280;64561;44.018;10.144;2023-05-10T05:05:39;100858.47;;;16.59;90.55
75886;BME280;64561;44.018;10.144;2023-05-10T05:08:05;100852.44;;;16.62;90.52
75886;BME280;64561;44.018;10.144;2023-05-10T05:10:32;100845.56;;;16.64;90.69
75886;BME280;64561;44.018;10.144;2023-05-10T05:12:59;100848.16;;;16.64;90.54
75886;BME280;64561;44.018;10.144;2023-05-10T05:15:26;100850.72;;;16.67;90.49
75886;BME280;64561;44.018;10.144;2023-05-10T05:17:53;100839.53;;;16.62;90.39
75886;BME280;64561;44.018;10.144;2023-05-10T05:20:20;100840.41;;;16.64;90.39
75886;BME280;64561;44.018;10.144;2023-05-10T05:22:46;100844.69;;;16.68;91.36
75886;BME280;64561;44.018;10.144;2023-05-10T05:25:13;100847.28;;;16.65;91.37
75886;BME280;64561;44.018;10.144;2023-05-10T05:27:41;100841.22;;;16.66;91.97
75886;BME280;64561;44.018;10.144;2023-05-10T05:30:08;100852.41;;;16.66;91.54
75886;BME280;64561;44.018;10.144;2023-05-10T05:32:35;100850.72;;;16.62;91.69
75886;BME280;64561;44.018;10.144;2023-05-10T05:35:02;100847.25;;;16.60;91.69
75886;BME280;64561;44.018;10.144;2023-05-10T05:37:29;100849.84;;;16.65;91.68
75886;BME280;64561;44.018;10.144;2023-05-10T05:39:56;100850.72;;;16.64;92.02
75886;BME280;64561;44.018;10.144;2023-05-10T05:42:22;100856.72;;;16.66;92.08
75886;BME280;64561;44.018;10.144;2023-05-10T05:44:49;100856.75;;;16.67;92.30
75886;BME280;64561;44.018;10.144;2023-05-10T05:47:16;100853.31;;;16.61;91.51
75886;BME280;64561;44.018;10.144;2023-05-10T05:49:43;100862.75;;;16.63;91.82
75886;BME280;64561;44.018;10.144;2023-05-10T05:52:12;100866.22;;;16.64;91.97
75886;BME280;64561;44.018;10.144;2023-05-10T05:54:39;100868.78;;;16.65;91.87
75886;BME280;64561;44.018;10.144;2023-05-10T05:57:06;100861.91;;;16.64;91.63
75886;BME280;64561;44.018;10.144;2023-05-10T05:59:33;100872.25;;;16.67;91.34
75886;BME280;64561;44.018;10.144;2023-05-10T06:02:00;100860.19;;;16.59;91.22
75886;BME280;64561;44.018;10.144;2023-05-10T06:04:27;100867.06;;;16.60;91.21
75886;BME280;64561;44.018;10.144;2023-05-10T06:06:54;100868.81;;;16.59;91.19
75886;BME280;64561;44.018;10.144;2023-05-10T06:09:21;100868.81;;;16.59;90.79
75886;BME280;64561;44.018;10.144;2023-05-10T06:11:50;100865.34;;;16.57;90.79
75886;BME280;64561;44.018;10.144;2023-05-10T06:14:17;100864.50;;;16.55;90.78
75886;BME280;64561;44.018;10.144;2023-05-10T06:16:43;100872.25;;;16.55;90.65
75886;BME280;64561;44.018;10.144;2023-05-10T06:19:10;100878.28;;;16.56;90.62
75886;BME280;64561;44.018;10.144;2023-05-10T06:21:40;100867.94;;;16.59;90.52
75886;BME280;64561;44.018;10.144;2023-05-10T06:24:07;100862.78;;;16.53;90.36
75886;BME280;64561;44.018;10.144;2023-05-10T06:26:34;100866.22;;;16.50;90.39
75886;BME280;64561;44.018;10.144;2023-05-10T06:29:00;100861.91;;;16.48;90.59
75886;BME280;64561;44.018;10.144;2023-05-10T06:31:27;100857.63;;;16.46;90.51
75886;BME280;64561;44.018;10.144;2023-05-10T06:33:54;100861.06;;;16.52;90.34
75886;BME280;64561;44.018;10.144;2023-05-10T06:36:22;100853.28;;;16.49;89.51
75886;BME280;64561;44.018;10.144;2023-05-10T06:38:51;100857.63;;;16.50;89.21
75886;BME280;64561;44.018;10.144;2023-05-10T06:41:18;100852.44;;;16.50;89.46
75886;BME280;64561;44.018;10.144;2023-05-10T06:43:45;100854.19;;;16.49;89.22
75886;BME280;64561;44.018;10.144;2023-05-10T06:46:12;100853.31;;;16.52;88.87
75886;BME280;64561;44.018;10.144;2023-05-10T06:48:38;100859.31;;;16.51;89.16
75886;BME280;64561;44.018;10.144;2023-05-10T06:51:05;100857.63;;;16.53;88.70
75886;BME280;64561;44.018;10.144;2023-05-10T06:53:32;100856.75;;;16.54;88.42
75886;BME280;64561;44.018;10.144;2023-05-10T06:55:59;100863.66;;;16.55;88.33
75886;BME280;64561;44.018;10.144;2023-05-10T06:58:26;100850.69;;;16.49;88.44
75886;BME280;64561;44.018;10.144;2023-05-10T07:00:52;100851.56;;;16.54;88.55
75886;BME280;64561;44.018;10.144;2023-05-10T07:03:19;100842.09;;;16.59;87.92
75886;BME280;64561;44.018;10.144;2023-05-10T07:05:46;100837.78;;;16.62;87.62
75886;BME280;64561;44.018;10.144;2023-05-10T07:08:13;100838.66;;;16.55;87.39
75886;BME280;64561;44.018;10.144;2023-05-10T07:10:40;100848.16;;;16.55;87.69
75886;BME280;64561;44.018;10.144;2023-05-10T07:13:06;100838.66;;;16.54;88.37
75886;BME280;64561;44.018;10.144;2023-05-10T07:15:33;100835.22;;;16.58;88.46
75886;BME280;64561;44.018;10.144;2023-05-10T07:18:00;100836.09;;;16.58;88.47
75886;BME280;64561;44.018;10.144;2023-05-10T07:20:27;100835.22;;;16.58;88.08
75886;BME280;64561;44.018;10.144;2023-05-10T07:22:54;100835.22;;;16.59;88.44
75886;BME280;64561;44.018;10.144;2023-05-10T07:25:21;100829.19;;;16.60;88.38
75886;BME280;64561;44.018;10.144;2023-05-10T07:27:48;100833.47;;;16.60;88.51
75886;BME280;64561;44.018;10.144;2023-05-10T07:30:15;100836.94;;;16.62;88.76
75886;BME280;64561;44.018;10.144;2023-05-10T07:32:42;100842.09;;;16.62;88.86
75886;BME280;64561;44.018;10.144;2023-05-10T07:35:09;100830.06;;;16.56;89.49
75886;BME280;64561;44.018;10.144;2023-05-10T07:37:35;100830.06;;;16.52;89.84
75886;BME280;64561;44.018;10.144;2023-05-10T07:40:03;100824.88;;;16.47;91.19
75886;BME280;64561;44.018;10.144;2023-05-10T07:42:30;100829.19;;;16.31;91.43
75886;BME280;64561;44.018;10.144;2023-05-10T07:44:57;100821.44;;;16.27;91.23
75886;BME280;64561;44.018;10.144;2023-05-10T07:47:24;100830.03;;;16.24;91.48
75886;BME280;64561;44.018;10.144;2023-05-10T07:49:51;100823.16;;;16.29;91.43
75886;BME280;64561;44.018;10.144;2023-05-10T07:52:18;100818.88;;;16.28;91.61
75886;BME280;64561;44.018;10.144;2023-05-10T07:54:47;100817.13;;;16.21;90.12
75886;BME280;64561;44.018;10.144;2023-05-10T07:57:15;100817.13;;;16.30;90.54
75886;BME280;64561;44.018;10.144;2023-05-10T07:59:44;100818.00;;;16.41;90.64
75886;BME280;64561;44.018;10.144;2023-05-10T08:02:11;100809.38;;;16.39;90.56
75886;BME280;64561;44.018;10.144;2023-05-10T08:04:38;100813.72;;;16.37;91.81
75886;BME280;64561;44.018;10.144;2023-05-10T08:07:05;100808.53;;;16.40;91.70
75886;BME280;64561;44.018;10.144;2023-05-10T08:09:32;100814.53;;;16.42;91.79
75886;BME280;64561;44.018;10.144;2023-05-10T08:11:58;100819.72;;;16.42;91.56
75886;BME280;64561;44.018;10.144;2023-05-10T08:14:29;100819.69;;;16.49;91.85
75886;BME280;64561;44.018;10.144;2023-05-10T08:16:56;100830.94;;;16.52;92.02
75886;BME280;64561;44.018;10.144;2023-05-10T08:19:23;100830.06;;;16.50;92.25
75886;BME280;64561;44.018;10.144;2023-05-10T08:21:50;100826.59;;;16.51;92.51
75886;BME280;64561;44.018;10.144;2023-05-10T08:24:17;100826.63;;;16.50;92.43
75886;BME280;64561;44.018;10.144;2023-05-10T08:26:44;100827.47;;;16.47;92.41
75886;BME280;64561;44.018;10.144;2023-05-10T08:29:11;100828.31;;;16.23;92.87
75886;BME280;64561;44.018;10.144;2023-05-10T08:31:38;100817.13;;;16.06;93.76
75886;BME280;64561;44.018;10.144;2023-05-10T08:34:05;100825.75;;;16.20;93.47
75886;BME280;64561;44.018;10.144;2023-05-10T08:36:34;100825.75;;;16.26;93.98
75886;BME280;64561;44.018;10.144;2023-05-10T08:39:01;100830.03;;;16.21;93.58
75886;BME280;64561;44.018;10.144;2023-05-10T08:41:29;100827.47;;;16.27;93.47
75886;BME280;64561;44.018;10.144;2023-05-10T08:44:02;100830.94;;;16.31;93.88
75886;BME280;64561;44.018;10.144;2023-05-10T08:46:29;100833.50;;;16.37;94.53
75886;BME280;64561;44.018;10.144;2023-05-10T08:48:58;100830.94;;;16.37;93.72
75886;BME280;64561;44.018;10.144;2023-05-10T08:51:27;100828.34;;;16.32;94.22
75886;BME280;64561;44.018;10.144;2023-05-10T08:53:57;100846.41;;;16.38;94.05
75886;BME280;64561;44.018;10.144;2023-05-10T08:56:24;100838.66;;;16.35;93.90
75886;BME280;64561;44.018;10.144;2023-05-10T08:58:51;100837.78;;;16.13;94.22
75886;BME280;64561;44.018;10.144;2023-05-10T09:01:21;100839.50;;;16.14;93.80
75886;BME280;64561;44.018;10.144;2023-05-10T09:03:48;100848.97;;;16.20;94.06
75886;BME280;64561;44.018;10.144;2023-05-10T09:06:15;100843.78;;;16.15;94.45
75886;BME280;64561;44.018;10.144;2023-05-10T09:08:43;100849.84;;;16.19;94.04
75886;BME280;64561;44.018;10.144;2023-05-10T09:11:12;100845.53;;;16.12;94.10
75886;BME280;64561;44.018;10.144;2023-05-10T09:13:39;100838.63;;;16.15;94.11
75886;BME280;64561;44.018;10.144;2023-05-10T09:16:06;100842.09;;;16.16;94.55
75886;BME280;64561;44.018;10.144;2023-05-10T09:18:47;100842.09;;;16.14;94.75
75886;BME280;64561;44.018;10.144;2023-05-10T09:21:16;100845.53;;;16.18;95.27
75886;BME280;64561;44.018;10.144;2023-05-10T09:23:44;100849.84;;;16.13;94.80
75886;BME280;64561;44.018;10.144;2023-05-10T09:26:14;100849.84;;;16.17;94.91
75886;BME280;64561;44.018;10.144;2023-05-10T09:28:51;100851.53;;;16.15;95.33
75886;BME280;64561;44.018;10.144;2023-05-10T09:31:18;100842.94;;;16.07;95.59
75886;BME280;64561;44.018;10.144;2023-05-10T09:33:47;100851.53;;;16.02;95.35
75886;BME280;64561;44.018;10.144;2023-05-10T09:36:14;100839.47;;;15.99;94.88
75886;BME280;64561;44.018;10.144;2023-05-10T09:38:50;100843.78;;;16.02;95.18
75886;BME280;64561;44.018;10.144;2023-05-10T09:41:20;100840.38;;;16.04;94.72
75886;BME280;64561;44.018;10.144;2023-05-10T09:43:47;100851.53;;;16.05;94.52
75886;BME280;64561;44.018;10.144;2023-05-10T09:46:17;100843.78;;;16.09;94.56
75886;BME280;64561;44.018;10.144;2023-05-10T09:48:47;100855.00;;;16.11;94.92
75886;BME280;64561;44.018;10.144;2023-05-10T09:51:24;100850.69;;;16.15;94.18
75886;BME280;64561;44.018;10.144;2023-05-10T09:54:11;100855.00;;;16.14;94.05
75886;BME280;64561;44.018;10.144;2023-05-10T09:56:39;100851.53;;;16.03;94.01
75886;BME280;64561;44.018;10.144;2023-05-10T09:59:11;100842.06;;;16.05;94.18
75886;BME280;64561;44.018;10.144;2023-05-10T10:01:38;100847.25;;;16.10;94.93
75886;BME280;64561;44.018;10.144;2023-05-10T10:04:08;100842.94;;;16.09;94.82
75886;BME280;64561;44.018;10.144;2023-05-10T10:06:39;100850.69;;;16.18;95.01
75886;BME280;64561;44.018;10.144;2023-05-10T10:09:07;100849.84;;;16.20;95.47
75886;BME280;64561;44.018;10.144;2023-05-10T10:11:35;100851.56;;;16.26;94.70
75886;BME280;64561;44.018;10.144;2023-05-10T10:14:02;100857.59;;;16.34;93.98
75886;BME280;64561;44.018;10.144;2023-05-10T10:16:31;100848.13;;;16.30;93.11
75886;BME280;64561;44.018;10.144;2023-05-10T10:18:58;100849.84;;;16.28;93.91
75886;BME280;64561;44.018;10.144;2023-05-10T10:21:25;100843.84;;;16.28;93.13
75886;BME280;64561;44.018;10.144;2023-05-10T10:23:52;100844.69;;;16.27;93.57
75886;BME280;64561;44.018;10.144;2023-05-10T10:26:20;100844.69;;;16.27;93.69
75886;BME280;64561;44.018;10.144;2023-05-10T10:28:51;100842.97;;;16.35;93.61
75886;BME280;64561;44.018;10.144;2023-05-10T10:31:27;100842.97;;;16.38;93.40
75886;BME280;64561;44.018;10.144;2023-05-10T10:34:01;100841.25;;;16.38;93.42
75886;BME280;64561;44.018;10.144;2023-05-10T10:36:31;100842.94;;;16.30;91.61
75886;BME280;64561;44.018;10.144;2023-05-10T10:39:01;100845.53;;;16.36;92.53
75886;BME280;64561;44.018;10.144;2023-05-10T10:41:33;100835.22;;;16.47;93.18
75886;BME280;64561;44.018;10.144;2023-05-10T10:49:43;100823.16;;;16.63;94.56
75886;BME280;64561;44.018;10.144;2023-05-10T10:55:12;100823.13;;;16.75;94.14
75886;BME280;64561;44.018;10.144;2023-05-10T11:00:29;100818.88;;;16.77;93.85
75886;BME280;64561;44.018;10.144;2023-05-10T11:03:04;100816.28;;;16.80;93.59
75886;BME280;64561;44.018;10.144;2023-05-10T11:10:40;100817.13;;;16.84;93.20
75886;BME280;64561;44.018;10.144;2023-05-10T11:13:15;100816.25;;;16.91;93.00
75886;BME280;64561;44.018;10.144;2023-05-10T11:15:48;100815.38;;;16.90;93.21
75886;BME280;64561;44.018;10.144;2023-05-10T11:18:21;100809.34;;;16.93;93.42
75886;BME280;64561;44.018;10.144;2023-05-10T11:20:51;100807.66;;;16.86;88.80
75886;BME280;64561;44.018;10.144;2023-05-10T11:23:18;100813.66;;;16.69;88.53
75886;BME280;64561;44.018;10.144;2023-05-10T11:25:48;100819.72;;;16.73;90.28
75886;BME280;64561;44.018;10.144;2023-05-10T11:28:18;100814.53;;;16.81;91.68
75886;BME280;64561;44.018;10.144;2023-05-10T11:30:46;100820.56;;;16.86;92.41
75886;BME280;64561;44.018;10.144;2023-05-10T11:33:17;100823.16;;;16.89;92.86
75886;BME280;64561;44.018;10.144;2023-05-10T11:35:46;100817.13;;;16.91;92.80
75886;BME280;64561;44.018;10.144;2023-05-10T11:38:15;100820.53;;;16.97;92.30
75886;BME280;64561;44.018;10.144;2023-05-10T11:40:43;100815.38;;;16.94;92.07
75886;BME280;64561;44.018;10.144;2023-05-10T11:43:10;100819.69;;;16.91;91.78
75886;BME280;64561;44.018;10.144;2023-05-10T11:45:38;100814.53;;;16.90;91.81
75886;BME280;64561;44.018;10.144;2023-05-10T11:48:07;100809.34;;;16.87;91.79
75886;BME280;64561;44.018;10.144;2023-05-10T11:50:34;100814.53;;;16.87;92.37
75886;BME280;64561;44.018;10.144;2023-05-10T11:53:01;100811.94;;;16.91;92.96
75886;BME280;64561;44.018;10.144;2023-05-10T11:55:28;100811.94;;;16.87;92.97
75886;BME280;64561;44.018;10.144;2023-05-10T11:58:01;100805.03;;;16.90;93.08
75886;BME280;64561;44.018;10.144;2023-05-10T12:00:29;100804.19;;;16.91;93.34
75886;BME280;64561;44.018;10.144;2023-05-10T12:02:57;100817.09;;;16.95;93.51
75886;BME280;64561;44.018;10.144;2023-05-10T12:05:24;100819.69;;;16.95;93.13
75886;BME280;64561;44.018;10.144;2023-05-10T12:07:51;100814.53;;;16.95;93.12
75886;BME280;64561;44.018;10.144;2023-05-10T12:10:26;100817.94;;;16.97;93.66
75886;BME280;64561;44.018;10.144;2023-05-10T12:12:53;100815.38;;;16.98;92.97
75886;BME280;64561;44.018;10.144;2023-05-10T12:15:23;100814.50;;;16.98;93.31
75886;BME280;64561;44.018;10.144;2023-05-10T12:17:51;100822.25;;;16.96;93.42
75886;BME280;64561;44.018;10.144;2023-05-10T12:20:23;100818.81;;;17.00;93.91
75886;BME280;64561;44.018;10.144;2023-05-10T12:22:52;100823.13;;;16.97;93.57
75886;BME280;64561;44.018;10.144;2023-05-10T12:25:21;100819.69;;;16.95;93.33
75886;BME280;64561;44.018;10.144;2023-05-10T12:27:56;100817.06;;;16.99;93.66
75886;BME280;64561;44.018;10.144;2023-05-10T12:30:31;100818.81;;;16.99;93.27
75886;BME280;64561;44.018;10.144;2023-05-10T12:33:06;100811.91;;;17.01;93.62
75886;BME280;64561;44.018;10.144;2023-05-10T12:35:46;100804.13;;;17.11;93.99
75886;BME280;64561;44.018;10.144;2023-05-10T12:38:34;100808.41;;;17.17;94.03
75886;BME280;64561;44.018;10.144;2023-05-10T12:41:03;100810.97;;;17.26;94.63
75886;BME280;64561;44.018;10.144;2023-05-10T12:43:31;100804.94;;;17.27;94.28
75886;BME280;64561;44.018;10.144;2023-05-10T12:45:58;100811.78;;;17.42;93.79
75886;BME280;64561;44.018;10.144;2023-05-10T12:48:30;100803.13;;;17.43;93.19
75886;BME280;64561;44.018;10.144;2023-05-10T12:50:58;100812.53;;;17.56;94.57
75886;BME280;64561;44.018;10.144;2023-05-10T12:53:24;100808.25;;;17.57;94.64
75886;BME280;64561;44.018;10.144;2023-05-10T12:55:51;100808.25;;;17.52;94.67
75886;BME280;64561;44.018;10.144;2023-05-10T12:58:18;100805.66;;;17.51;94.38
75886;BME280;64561;44.018;10.144;2023-05-10T13:01:01;100800.53;;;17.49;93.48
75886;BME280;64561;44.018;10.144;2023-05-10T13:03:28;100800.53;;;17.49;92.95
75886;BME280;64561;44.018;10.144;2023-05-10T13:05:55;100797.06;;;17.50;92.60
75886;BME280;64561;44.018;10.144;2023-05-10T13:08:22;100795.38;;;17.40;90.31
75886;BME280;64561;44.018;10.144;2023-05-10T13:10:49;100795.34;;;17.45;90.26
75886;BME280;64561;44.018;10.144;2023-05-10T13:13:16;100780.69;;;17.51;91.21
75886;BME280;64561;44.018;10.144;2023-05-10T13:15:46;100784.09;;;17.55;91.72
75886;BME280;64561;44.018;10.144;2023-05-10T13:18:13;100775.44;;;17.60;91.30
75886;BME280;64561;44.018;10.144;2023-05-10T13:20:40;100773.69;;;17.64;90.75
75886;BME280;64561;44.018;10.144;2023-05-10T13:23:10;100772.84;;;17.62;89.74